createdAt,value
2023-05-19T00:00:54.963Z,13.23
2023-05-19T00:01:55.208Z,13.24
2023-05-19T00:02:55.065Z,13.27
2023-05-19T00:03:55.033Z,13.30
2023-05-19T00:04:55.057Z,13.30
2023-05-19T00:05:55.047Z,13.31
2023-05-19T00:06:55.225Z,13.34
2023-05-19T00:07:55.084Z,13.36
2023-05-19T00:08:55.012Z,13.36
2023-05-19T00:09:55.150Z,13.32
2023-05-19T00:10:56.140Z,13.31
2023-05-19T00:11:55.161Z,13.32
2023-05-19T00:12:55.391Z,13.35
2023-05-19T00:13:56.331Z,13.37
2023-05-19T00:14:55.218Z,13.36
2023-05-19T00:15:55.610Z,13.37
2023-05-19T00:16:56.338Z,13.36
2023-05-19T00:17:56.468Z,13.37
2023-05-19T00:18:56.609Z,13.38
2023-05-19T00:19:55.355Z,13.39
2023-05-19T00:20:55.473Z,13.42
2023-05-19T00:21:55.645Z,13.43
2023-05-19T00:22:55.602Z,13.44
2023-05-19T00:23:55.427Z,13.45
2023-05-19T00:24:55.408Z,13.46
2023-05-19T00:25:55.616Z,13.46
2023-05-19T00:26:55.494Z,13.45
2023-05-19T00:27:56.559Z,13.37
2023-05-19T00:28:56.616Z,13.30
2023-05-19T00:29:55.650Z,13.32
2023-05-19T00:30:56.873Z,13.34
2023-05-19T00:31:56.000Z,13.25
2023-05-19T00:32:56.078Z,13.07
2023-05-19T00:33:57.083Z,12.87
2023-05-19T00:34:56.857Z,12.78
2023-05-19T00:35:55.874Z,12.65
2023-05-19T00:36:56.997Z,12.67
2023-05-19T00:37:56.981Z,12.63
2023-05-19T00:38:55.925Z,12.61
2023-05-19T00:39:56.948Z,12.57
2023-05-19T00:40:56.226Z,12.59
2023-05-19T00:41:56.027Z,12.49
2023-05-19T00:42:56.173Z,12.49
2023-05-19T00:43:57.173Z,12.46
2023-05-19T00:44:56.157Z,12.42
2023-05-19T00:45:56.292Z,12.43
2023-05-19T00:46:57.218Z,12.41
2023-05-19T00:47:57.374Z,12.34
2023-05-19T00:48:56.433Z,12.22
2023-05-19T00:49:57.452Z,12.14
2023-05-19T00:50:56.305Z,12.06
2023-05-19T00:51:56.472Z,11.95
2023-05-19T00:52:56.480Z,11.87
2023-05-19T00:53:57.369Z,11.94
2023-05-19T00:54:57.398Z,12.09
2023-05-19T00:55:56.461Z,12.17
2023-05-19T00:56:57.531Z,12.27
2023-05-19T00:57:57.596Z,12.35
2023-05-19T00:58:57.453Z,12.34
2023-05-19T00:59:57.659Z,12.31
2023-05-19T01:00:57.756Z,12.27
2023-05-19T01:01:57.618Z,12.24
2023-05-19T01:02:57.803Z,12.28
2023-05-19T01:03:57.039Z,12.23
2023-05-19T01:04:56.536Z,12.34
2023-05-19T01:05:57.565Z,12.45
2023-05-19T01:06:57.816Z,12.55
2023-05-19T01:07:57.766Z,12.44
2023-05-19T01:08:57.628Z,12.48
2023-05-19T01:09:56.770Z,12.57
2023-05-19T01:10:56.665Z,12.64
2023-05-19T01:11:57.690Z,12.72
2023-05-19T01:12:57.059Z,12.77
2023-05-19T01:13:57.811Z,12.82
2023-05-19T01:14:57.089Z,12.84
2023-05-19T01:15:58.154Z,12.88
2023-05-19T01:16:56.956Z,12.91
2023-05-19T01:17:57.935Z,12.94
2023-05-19T01:18:58.049Z,12.97
2023-05-19T01:19:58.065Z,13.00
2023-05-19T01:20:57.205Z,13.01
2023-05-19T01:21:57.248Z,13.02
2023-05-19T01:22:57.238Z,13.02
2023-05-19T01:23:57.151Z,13.04
2023-05-19T01:24:57.302Z,13.04
2023-05-19T01:25:57.356Z,13.05
2023-05-19T01:26:57.428Z,13.05
2023-05-19T01:27:57.324Z,13.05
2023-05-19T01:28:58.384Z,13.07
2023-05-19T01:29:57.679Z,13.07
2023-05-19T01:30:57.742Z,13.07
2023-05-19T01:31:57.595Z,13.07
2023-05-19T01:32:57.601Z,13.05
2023-05-19T01:33:57.801Z,13.06
2023-05-19T01:34:58.643Z,13.05
2023-05-19T01:35:58.739Z,13.04
2023-05-19T01:36:57.625Z,13.04
2023-05-19T01:37:57.649Z,13.04
2023-05-19T01:38:57.850Z,13.05
2023-05-19T01:39:57.763Z,13.04
2023-05-19T01:40:58.717Z,13.04
2023-05-19T01:41:57.786Z,13.05
2023-05-19T01:42:57.996Z,13.02
2023-05-19T01:43:58.048Z,13.00
2023-05-19T01:44:57.808Z,13.01
2023-05-19T01:45:57.972Z,13.01
2023-05-19T01:46:58.864Z,12.99
2023-05-19T01:47:59.020Z,12.95
2023-05-19T01:48:57.903Z,12.87
2023-05-19T01:49:58.082Z,12.78
2023-05-19T01:50:59.151Z,12.78
2023-05-19T01:51:58.069Z,12.79
2023-05-19T01:52:59.036Z,12.75
2023-05-19T01:53:59.179Z,12.60
2023-05-19T01:54:59.256Z,12.39
2023-05-19T01:55:58.376Z,12.23
2023-05-19T01:56:59.131Z,12.15
2023-05-19T01:57:58.116Z,12.10
2023-05-19T01:58:58.131Z,12.09
2023-05-19T01:59:58.187Z,12.08
2023-05-19T02:00:59.367Z,12.04
2023-05-19T02:01:58.291Z,12.00
2023-05-19T02:02:58.293Z,11.98
2023-05-19T02:03:58.261Z,11.99
2023-05-19T02:04:58.210Z,12.01
2023-05-19T02:05:59.385Z,12.06
2023-05-19T02:06:59.310Z,12.12
2023-05-19T02:07:59.326Z,12.22
2023-05-19T02:08:58.495Z,12.30
2023-05-19T02:09:58.380Z,12.37
2023-05-19T02:10:58.627Z,12.44
2023-05-19T02:11:58.473Z,12.52
2023-05-19T02:12:58.729Z,12.58
2023-05-19T02:13:58.457Z,12.64
2023-05-19T02:14:58.770Z,12.68
2023-05-19T02:15:58.778Z,12.72
2023-05-19T02:16:59.613Z,12.76
2023-05-19T02:17:58.846Z,12.78
2023-05-19T02:18:59.583Z,12.80
2023-05-19T02:19:58.518Z,12.81
2023-05-19T02:20:59.643Z,12.83
2023-05-19T02:21:58.871Z,12.85
2023-05-19T02:22:58.842Z,12.84
2023-05-19T02:23:59.918Z,12.83
2023-05-19T02:24:58.717Z,12.64
2023-05-19T02:25:58.941Z,12.36
2023-05-19T02:26:59.891Z,12.37
2023-05-19T02:27:58.891Z,12.42
2023-05-19T02:28:59.878Z,12.48
2023-05-19T02:29:59.029Z,12.53
2023-05-19T02:30:59.902Z,12.58
2023-05-19T02:31:59.106Z,12.59
2023-05-19T02:32:59.015Z,12.60
2023-05-19T02:33:59.076Z,12.55
2023-05-19T02:35:00.008Z,12.57
2023-05-19T02:36:00.037Z,12.59
2023-05-19T02:36:59.034Z,12.51
2023-05-19T02:37:59.336Z,12.51
2023-05-19T02:38:59.157Z,12.52
2023-05-19T02:40:00.267Z,12.53
2023-05-19T02:41:00.301Z,12.56
2023-05-19T02:42:00.474Z,12.54
2023-05-19T02:42:59.619Z,12.53
2023-05-19T02:43:59.443Z,12.51
2023-05-19T02:44:59.568Z,12.48
2023-05-19T02:46:00.627Z,12.48
2023-05-19T02:47:00.392Z,12.50
2023-05-19T02:48:00.662Z,12.49
2023-05-19T02:48:59.566Z,12.51
2023-05-19T02:50:00.756Z,12.49
2023-05-19T02:50:59.594Z,12.48
2023-05-19T02:51:59.627Z,12.49
2023-05-19T02:52:59.909Z,12.51
2023-05-19T02:53:59.709Z,12.53
2023-05-19T02:55:00.926Z,12.51
2023-05-19T02:56:00.811Z,12.36
2023-05-19T02:56:59.779Z,12.35
2023-05-19T02:57:59.868Z,12.36
2023-05-19T02:58:59.782Z,12.34
2023-05-19T02:59:59.918Z,12.24
2023-05-19T03:01:00.816Z,12.21
2023-05-19T03:02:00.098Z,12.26
2023-05-19T03:03:00.042Z,12.30
2023-05-19T03:04:00.986Z,12.33
2023-05-19T03:05:00.214Z,12.37
2023-05-19T03:06:01.177Z,12.41
2023-05-19T03:07:01.148Z,12.45
2023-05-19T03:08:00.218Z,12.46
2023-05-19T03:09:01.001Z,12.50
2023-05-19T03:10:01.058Z,12.47
2023-05-19T03:11:01.314Z,12.44
2023-05-19T03:12:01.111Z,12.37
2023-05-19T03:13:01.461Z,12.38
2023-05-19T03:14:00.243Z,12.41
2023-05-19T03:15:00.328Z,12.43
2023-05-19T03:16:01.379Z,12.43
2023-05-19T03:17:00.646Z,12.45
2023-05-19T03:18:01.724Z,12.46
2023-05-19T03:19:00.788Z,12.50
2023-05-19T03:20:00.520Z,12.53
2023-05-19T03:21:01.755Z,12.54
2023-05-19T03:22:01.485Z,12.55
2023-05-19T03:23:00.784Z,12.40
2023-05-19T03:24:01.583Z,12.37
2023-05-19T03:25:01.624Z,12.39
2023-05-19T03:26:00.715Z,12.41
2023-05-19T03:27:00.879Z,12.42
2023-05-19T03:28:00.618Z,12.33
2023-05-19T03:29:00.907Z,12.31
2023-05-19T03:30:00.693Z,12.30
2023-05-19T03:31:01.862Z,12.31
2023-05-19T03:32:01.856Z,12.27
2023-05-19T03:33:02.065Z,12.28
2023-05-19T03:34:01.977Z,12.28
2023-05-19T03:35:00.906Z,12.29
2023-05-19T03:36:01.211Z,12.30
2023-05-19T03:37:01.072Z,12.28
2023-05-19T03:38:01.219Z,12.27
2023-05-19T03:39:02.024Z,12.25
2023-05-19T03:40:01.317Z,12.24
2023-05-19T03:41:01.373Z,12.24
2023-05-19T03:42:02.179Z,12.23
2023-05-19T03:43:01.330Z,12.18
2023-05-19T03:44:02.348Z,12.17
2023-05-19T03:45:01.405Z,12.17
2023-05-19T03:46:02.514Z,12.16
2023-05-19T03:47:02.564Z,12.14
2023-05-19T03:48:02.448Z,12.10
2023-05-19T03:49:01.652Z,12.09
2023-05-19T03:50:01.389Z,12.11
2023-05-19T03:51:01.587Z,12.02
2023-05-19T03:52:02.603Z,12.01
2023-05-19T03:53:02.503Z,11.99
2023-05-19T03:54:02.503Z,12.02
2023-05-19T03:55:02.503Z,12.03
2023-05-19T03:56:01.521Z,12.01
2023-05-19T03:57:01.535Z,11.99
2023-05-19T03:58:01.578Z,12.03
2023-05-19T03:59:02.609Z,12.07
2023-05-19T04:00:01.615Z,12.09
2023-05-19T04:01:02.558Z,12.14
2023-05-19T04:02:02.643Z,12.09
2023-05-19T04:03:02.808Z,12.09
2023-05-19T04:04:02.734Z,12.10
2023-05-19T04:05:01.761Z,12.06
2023-05-19T04:06:01.768Z,12.05
2023-05-19T04:07:01.791Z,12.02
2023-05-19T04:08:01.815Z,12.04
2023-05-19T04:09:02.827Z,12.07
2023-05-19T04:10:02.901Z,12.09
2023-05-19T04:11:02.011Z,12.12
2023-05-19T04:12:01.930Z,12.09
2023-05-19T04:13:02.997Z,12.10
2023-05-19T04:14:03.047Z,12.07
2023-05-19T04:15:03.076Z,12.07
2023-05-19T04:16:03.135Z,12.06
2023-05-19T04:17:03.229Z,12.07
2023-05-19T04:18:02.317Z,12.05
2023-05-19T04:19:03.326Z,12.05
2023-05-19T04:20:03.239Z,12.05
2023-05-19T04:21:03.286Z,12.01
2023-05-19T04:22:03.342Z,11.97
2023-05-19T04:23:03.324Z,11.93
2023-05-19T04:24:03.317Z,11.91
2023-05-19T04:25:02.324Z,11.92
2023-05-19T04:26:02.349Z,11.93
2023-05-19T04:27:03.371Z,11.95
2023-05-19T04:28:02.593Z,11.96
2023-05-19T04:29:02.456Z,11.97
2023-05-19T04:30:02.444Z,12.01
2023-05-19T04:31:02.476Z,12.03
2023-05-19T04:32:03.487Z,12.07
2023-05-19T04:33:03.562Z,12.08
2023-05-19T04:34:02.559Z,12.08
2023-05-19T04:35:02.520Z,12.06
2023-05-19T04:36:03.578Z,12.06
2023-05-19T04:37:03.597Z,12.02
2023-05-19T04:38:03.638Z,12.04
2023-05-19T04:39:03.636Z,12.07
2023-05-19T04:40:03.716Z,12.10
2023-05-19T04:41:03.738Z,12.11
2023-05-19T04:42:02.743Z,12.11
2023-05-19T04:43:03.797Z,12.10
2023-05-19T04:44:03.800Z,12.11
2023-05-19T04:45:02.823Z,12.14
2023-05-19T04:46:03.874Z,12.15
2023-05-19T04:47:04.016Z,12.17
2023-05-19T04:48:04.008Z,12.19
2023-05-19T04:49:03.895Z,12.22
2023-05-19T04:50:03.986Z,12.21
2023-05-19T04:51:03.982Z,12.16
2023-05-19T04:52:04.045Z,11.95
2023-05-19T04:53:04.047Z,11.96
2023-05-19T04:54:03.038Z,11.94
2023-05-19T04:55:04.052Z,11.96
2023-05-19T04:56:04.079Z,12.01
2023-05-19T04:57:03.182Z,12.03
2023-05-19T04:58:04.166Z,12.07
2023-05-19T04:59:04.232Z,12.08
2023-05-19T05:00:03.245Z,12.10
2023-05-19T05:01:04.261Z,12.11
2023-05-19T05:02:04.345Z,12.14
2023-05-19T05:03:03.401Z,12.14
2023-05-19T05:04:04.438Z,12.15
2023-05-19T05:05:04.635Z,12.18
2023-05-19T05:06:03.392Z,12.20
2023-05-19T05:07:04.406Z,12.20
2023-05-19T05:08:03.502Z,12.20
2023-05-19T05:09:04.533Z,12.17
2023-05-19T05:10:04.494Z,12.15
2023-05-19T05:11:03.589Z,12.01
2023-05-19T05:12:04.543Z,11.91
2023-05-19T05:13:04.594Z,11.90
2023-05-19T05:14:04.590Z,11.93
2023-05-19T05:15:04.718Z,11.95
2023-05-19T05:16:04.708Z,12.01
2023-05-19T05:17:03.698Z,12.03
2023-05-19T05:18:03.802Z,12.06
2023-05-19T05:19:04.829Z,12.08
2023-05-19T05:20:03.839Z,11.90
2023-05-19T05:21:04.868Z,11.87
2023-05-19T05:22:04.932Z,11.89
2023-05-19T05:23:04.981Z,11.90
2023-05-19T05:24:03.955Z,11.93
2023-05-19T05:25:03.966Z,11.94
2023-05-19T05:26:05.169Z,11.91
2023-05-19T05:27:05.152Z,11.92
2023-05-19T05:28:05.170Z,11.87
2023-05-19T05:29:05.108Z,11.88
2023-05-19T05:30:04.082Z,11.76
2023-05-19T05:31:04.247Z,11.66
2023-05-19T05:32:04.432Z,11.60
2023-05-19T05:33:04.285Z,11.59
2023-05-19T05:34:04.207Z,11.60
2023-05-19T05:35:05.237Z,11.67
2023-05-19T05:36:05.281Z,11.73
2023-05-19T05:37:05.417Z,11.82
2023-05-19T05:38:05.405Z,11.82
2023-05-19T05:39:04.457Z,11.85
2023-05-19T05:40:05.422Z,11.90
2023-05-19T05:41:05.463Z,11.95
2023-05-19T05:42:05.503Z,12.00
2023-05-19T05:43:05.650Z,12.05
2023-05-19T05:44:05.659Z,12.11
2023-05-19T05:45:04.664Z,12.16
2023-05-19T05:46:05.696Z,12.19
2023-05-19T05:47:05.774Z,12.13
2023-05-19T05:48:04.772Z,11.99
2023-05-19T05:49:04.741Z,11.95
2023-05-19T05:50:04.786Z,11.94
2023-05-19T05:51:05.927Z,12.01
2023-05-19T05:52:06.802Z,12.09
2023-05-19T05:53:05.955Z,12.18
2023-05-19T05:54:06.020Z,12.26
2023-05-19T05:55:05.035Z,12.33
2023-05-19T05:56:06.022Z,12.39
2023-05-19T05:57:06.123Z,12.43
2023-05-19T05:58:06.127Z,12.48
2023-05-19T05:59:06.207Z,12.51
2023-05-19T06:00:05.242Z,12.52
2023-05-19T06:01:06.158Z,12.55
2023-05-19T06:02:05.229Z,12.59
2023-05-19T06:03:05.388Z,12.61
2023-05-19T06:04:05.234Z,12.65
2023-05-19T06:05:06.225Z,12.68
2023-05-19T06:06:06.251Z,12.43
2023-05-19T06:07:06.314Z,12.25
2023-05-19T06:08:05.465Z,12.23
2023-05-19T06:09:06.397Z,12.19
2023-05-19T06:10:05.598Z,12.21
2023-05-19T06:11:06.433Z,12.29
2023-05-19T06:12:06.594Z,12.32
2023-05-19T06:13:05.537Z,12.37
2023-05-19T06:14:06.606Z,12.42
2023-05-19T06:15:06.692Z,12.46
2023-05-19T06:16:06.750Z,12.50
2023-05-19T06:17:05.714Z,12.54
2023-05-19T06:18:06.861Z,12.60
2023-05-19T06:19:06.817Z,12.63
2023-05-19T06:20:05.790Z,12.66
2023-05-19T06:21:05.848Z,12.70
2023-05-19T06:22:05.992Z,12.74
2023-05-19T06:23:05.911Z,12.79
2023-05-19T06:24:07.141Z,12.85
2023-05-19T06:25:05.982Z,12.90
2023-05-19T06:26:06.060Z,12.94
2023-05-19T06:27:06.055Z,12.96
2023-05-19T06:28:07.161Z,13.00
2023-05-19T06:29:07.418Z,13.00
2023-05-19T06:30:07.310Z,13.04
2023-05-19T06:31:07.320Z,13.07
2023-05-19T06:32:06.298Z,13.12
2023-05-19T06:33:07.425Z,13.13
2023-05-19T06:34:06.374Z,13.18
2023-05-19T06:35:06.430Z,13.20
2023-05-19T06:36:06.392Z,13.21
2023-05-19T06:37:07.422Z,13.19
2023-05-19T06:38:07.468Z,13.10
2023-05-19T06:39:06.504Z,12.97
2023-05-19T06:40:07.468Z,12.97
2023-05-19T06:41:07.810Z,13.01
2023-05-19T06:42:06.568Z,13.11
2023-05-19T06:43:07.618Z,13.13
2023-05-19T06:44:06.998Z,13.18
2023-05-19T06:45:06.750Z,13.13
2023-05-19T06:46:06.848Z,13.12
2023-05-19T06:47:06.848Z,13.15
2023-05-19T06:48:06.910Z,13.13
2023-05-19T06:49:06.872Z,13.14
2023-05-19T06:50:08.005Z,13.13
2023-05-19T06:51:07.041Z,13.02
2023-05-19T06:52:08.063Z,12.91
2023-05-19T06:53:06.967Z,12.83
2023-05-19T06:54:08.030Z,12.85
2023-05-19T06:55:08.084Z,12.86
2023-05-19T06:56:07.152Z,12.83
2023-05-19T06:57:07.215Z,12.93
2023-05-19T06:58:07.892Z,13.04
2023-05-19T06:59:07.316Z,13.16
2023-05-19T07:00:07.350Z,13.23
2023-05-19T07:01:08.439Z,13.21
2023-05-19T07:02:08.562Z,13.10
2023-05-19T07:03:08.575Z,13.09
2023-05-19T07:04:08.599Z,13.12
2023-05-19T07:05:08.563Z,13.08
2023-05-19T07:06:08.668Z,12.98
2023-05-19T07:07:08.596Z,12.95
2023-05-19T07:08:08.700Z,12.91
2023-05-19T07:09:08.736Z,12.90
2023-05-19T07:10:07.693Z,12.88
2023-05-19T07:11:07.730Z,12.81
2023-05-19T07:12:08.765Z,12.69
2023-05-19T07:13:07.927Z,12.71
2023-05-19T07:14:08.885Z,12.82
2023-05-19T07:15:07.909Z,12.98
2023-05-19T07:16:07.945Z,13.11
2023-05-19T07:17:09.081Z,13.16
2023-05-19T07:18:08.049Z,13.24
2023-05-19T07:19:09.178Z,13.35
2023-05-19T07:20:08.143Z,13.44
2023-05-19T07:21:09.289Z,13.49
2023-05-19T07:22:09.251Z,13.51
2023-05-19T07:23:09.411Z,13.47
2023-05-19T07:24:09.276Z,13.53
2023-05-19T07:25:09.231Z,13.48
2023-05-19T07:26:09.302Z,13.38
2023-05-19T07:27:09.272Z,13.30
2023-05-19T07:28:08.272Z,13.29
2023-05-19T07:29:09.395Z,13.24
2023-05-19T07:30:08.461Z,13.18
2023-05-19T07:31:08.356Z,13.21
2023-05-19T07:32:08.566Z,13.24
2023-05-19T07:33:09.420Z,13.28
2023-05-19T07:34:08.669Z,13.33
2023-05-19T07:35:08.530Z,13.40
2023-05-19T07:36:09.577Z,13.39
2023-05-19T07:37:09.787Z,13.40
2023-05-19T07:38:09.672Z,13.39
2023-05-19T07:39:10.004Z,13.52
2023-05-19T07:40:09.822Z,13.62
2023-05-19T07:41:08.894Z,13.62
2023-05-19T07:42:09.187Z,13.62
2023-05-19T07:43:08.935Z,13.72
2023-05-19T07:44:09.045Z,13.87
2023-05-19T07:45:10.107Z,14.02
2023-05-19T07:46:10.231Z,14.15
2023-05-19T07:47:09.041Z,14.22
2023-05-19T07:48:10.154Z,14.31
2023-05-19T07:49:09.106Z,14.40
2023-05-19T07:50:10.113Z,14.48
2023-05-19T07:51:09.165Z,14.51
2023-05-19T07:52:10.182Z,14.57
2023-05-19T07:53:09.196Z,14.61
2023-05-19T07:54:09.289Z,14.65
2023-05-19T07:55:10.227Z,14.71
2023-05-19T07:56:10.271Z,14.74
2023-05-19T07:57:10.321Z,14.77
2023-05-19T07:58:09.362Z,14.81
2023-05-19T07:59:10.466Z,14.78
2023-05-19T08:00:09.440Z,14.75
2023-05-19T08:01:09.448Z,14.64
2023-05-19T08:02:10.728Z,14.49
2023-05-19T08:03:09.714Z,14.40
2023-05-19T08:04:11.903Z,14.26
2023-05-19T08:05:10.573Z,14.22
2023-05-19T08:06:09.677Z,14.19
2023-05-19T08:07:10.513Z,14.28
2023-05-19T08:08:10.745Z,14.38
2023-05-19T08:09:09.504Z,14.45
2023-05-19T08:10:10.507Z,14.56
2023-05-19T08:11:10.516Z,14.68
2023-05-19T08:12:10.519Z,14.83
2023-05-19T08:13:09.483Z,14.98
2023-05-19T08:14:10.466Z,15.13
2023-05-19T08:15:09.585Z,15.25
2023-05-19T08:16:10.498Z,15.28
2023-05-19T08:17:10.621Z,15.34
2023-05-19T08:18:09.561Z,15.37
2023-05-19T08:19:10.646Z,15.39
2023-05-19T08:20:09.636Z,15.42
2023-05-19T08:21:09.642Z,15.44
2023-05-19T08:22:09.415Z,15.46
2023-05-19T08:23:09.488Z,15.47
2023-05-19T08:24:10.423Z,15.52
2023-05-19T08:25:10.440Z,15.53
2023-05-19T08:26:10.414Z,15.58
2023-05-19T08:27:10.489Z,15.62
2023-05-19T08:28:10.504Z,15.60
2023-05-19T08:29:09.422Z,15.62
2023-05-19T08:30:10.364Z,15.66
2023-05-19T08:31:10.494Z,15.68
2023-05-19T08:32:12.439Z,15.52
2023-05-19T08:33:09.483Z,15.53
2023-05-19T08:34:10.356Z,15.58
2023-05-19T08:35:09.325Z,15.62
2023-05-19T08:36:09.398Z,15.68
2023-05-19T08:37:09.403Z,15.73
2023-05-19T08:38:10.316Z,15.81
2023-05-19T08:39:10.419Z,15.88
2023-05-19T08:40:10.325Z,15.91
2023-05-19T08:41:10.324Z,15.97
2023-05-19T08:42:09.288Z,16.01
2023-05-19T08:43:10.319Z,16.06
2023-05-19T08:44:10.286Z,16.10
2023-05-19T08:45:10.449Z,16.12
2023-05-19T08:46:09.325Z,16.17
2023-05-19T08:47:10.373Z,16.16
2023-05-19T08:48:09.373Z,16.17
2023-05-19T08:49:10.332Z,16.21
2023-05-19T08:50:09.240Z,16.24
2023-05-19T08:51:10.249Z,16.12
2023-05-19T08:52:09.323Z,16.10
2023-05-19T08:53:18.121Z,16.15
2023-05-19T08:54:10.287Z,16.19
2023-05-19T08:55:10.221Z,16.28
2023-05-19T08:56:10.235Z,16.19
2023-05-19T08:57:10.189Z,16.17
2023-05-19T08:58:10.158Z,15.82
2023-05-19T08:59:10.153Z,15.89
2023-05-19T09:00:10.224Z,15.95
2023-05-19T09:01:09.186Z,16.05
2023-05-19T09:02:10.206Z,16.17
2023-05-19T09:03:18.053Z,16.26
2023-05-19T09:04:10.338Z,16.32
2023-05-19T09:05:10.339Z,16.30
2023-05-19T09:06:09.212Z,16.41
2023-05-19T09:07:09.120Z,16.51
2023-05-19T09:08:09.219Z,16.50
2023-05-19T09:09:09.093Z,16.54
2023-05-19T09:10:09.114Z,16.50
2023-05-19T09:11:09.089Z,16.54
2023-05-19T09:12:09.109Z,16.62
2023-05-19T09:13:10.165Z,16.67
2023-05-19T09:14:10.066Z,16.74
2023-05-19T09:15:10.121Z,16.65
2023-05-19T09:16:10.056Z,16.60
2023-05-19T09:17:09.154Z,16.49
2023-05-19T09:18:09.136Z,16.50
2023-05-19T09:19:09.055Z,16.53
2023-05-19T09:20:09.050Z,16.65
2023-05-19T09:21:09.036Z,16.57
2023-05-19T09:22:10.136Z,16.53
2023-05-19T09:23:10.002Z,16.54
2023-05-19T09:24:10.195Z,16.52
2023-05-19T09:25:10.123Z,16.58
2023-05-19T09:26:09.997Z,16.71
2023-05-19T09:27:09.001Z,16.83
2023-05-19T09:28:08.977Z,16.94
2023-05-19T09:29:10.040Z,17.03
2023-05-19T09:30:10.078Z,17.03
2023-05-19T09:31:09.962Z,17.02
2023-05-19T09:32:09.970Z,17.04
2023-05-19T09:33:08.965Z,17.04
2023-05-19T09:34:08.942Z,17.03
2023-05-19T09:35:09.949Z,17.01
2023-05-19T09:36:09.111Z,16.98
2023-05-19T09:37:09.010Z,16.95
2023-05-19T09:38:10.027Z,16.82
2023-05-19T09:39:10.189Z,16.60
2023-05-19T09:40:10.555Z,16.52
2023-05-19T09:41:09.388Z,16.19
2023-05-19T09:42:10.192Z,16.19
2023-05-19T09:43:10.156Z,16.38
2023-05-19T09:44:09.183Z,16.52
2023-05-19T09:45:09.218Z,16.72
2023-05-19T09:46:11.183Z,16.86
2023-05-19T09:47:10.278Z,17.03
2023-05-19T09:48:09.325Z,17.19
2023-05-19T09:49:10.216Z,17.31
2023-05-19T09:50:10.228Z,17.28
2023-05-19T09:51:09.397Z,17.35
2023-05-19T09:52:10.068Z,17.49
2023-05-19T09:53:09.211Z,17.56
2023-05-19T09:54:09.232Z,17.45
2023-05-19T09:55:09.196Z,17.50
2023-05-19T09:56:10.474Z,17.57
2023-05-19T09:57:10.270Z,17.62
2023-05-19T09:58:12.110Z,17.71
2023-05-19T09:59:09.149Z,17.70
2023-05-19T10:00:09.195Z,17.72
2023-05-19T10:01:10.184Z,17.76
2023-05-19T10:02:09.144Z,17.35
2023-05-19T10:03:10.168Z,17.35
2023-05-19T10:04:10.347Z,17.42
2023-05-19T10:05:10.214Z,17.57
2023-05-19T10:06:10.156Z,17.69
2023-05-19T10:07:09.099Z,17.80
2023-05-19T10:08:10.092Z,17.87
2023-05-19T10:09:10.093Z,17.75
2023-05-19T10:10:10.162Z,17.84
2023-05-19T10:11:10.083Z,17.96
2023-05-19T10:12:10.170Z,18.09
2023-05-19T10:13:10.310Z,18.19
2023-05-19T10:14:09.053Z,18.20
2023-05-19T10:15:10.060Z,18.27
2023-05-19T10:16:09.288Z,18.21
2023-05-19T10:17:09.036Z,17.89
2023-05-19T10:18:09.099Z,17.80
2023-05-19T10:19:10.048Z,17.79
2023-05-19T10:20:09.007Z,17.81
2023-05-19T10:21:09.030Z,17.74
2023-05-19T10:22:08.984Z,17.55
2023-05-19T10:23:10.002Z,17.59
2023-05-19T10:24:11.479Z,17.71
2023-05-19T10:25:10.120Z,17.81
2023-05-19T10:26:09.981Z,17.83
2023-05-19T10:27:08.978Z,17.89
2023-05-19T10:28:09.949Z,17.96
2023-05-19T10:29:10.013Z,17.82
2023-05-19T10:30:11.498Z,17.87
2023-05-19T10:31:09.971Z,17.88
2023-05-19T10:32:08.950Z,17.89
2023-05-19T10:33:09.962Z,17.60
2023-05-19T10:34:09.038Z,17.51
2023-05-19T10:35:09.903Z,17.61
2023-05-19T10:36:09.913Z,17.42
2023-05-19T10:37:09.950Z,17.44
2023-05-19T10:38:09.894Z,17.47
2023-05-19T10:39:08.876Z,17.56
2023-05-19T10:40:08.892Z,17.71
2023-05-19T10:41:10.037Z,17.83
2023-05-19T10:42:09.849Z,17.91
2023-05-19T10:43:09.903Z,17.82
2023-05-19T10:44:09.846Z,17.67
2023-05-19T10:45:08.840Z,17.72
2023-05-19T10:46:09.840Z,17.90
2023-05-19T10:47:08.882Z,18.07
2023-05-19T10:48:08.851Z,18.22
2023-05-19T10:49:08.917Z,18.34
2023-05-19T10:50:08.825Z,18.48
2023-05-19T10:51:10.354Z,18.54
2023-05-19T10:52:08.780Z,18.63
2023-05-19T10:53:09.796Z,18.73
2023-05-19T10:54:08.783Z,18.80
2023-05-19T10:55:09.851Z,18.84
2023-05-19T10:56:09.793Z,18.93
2023-05-19T10:57:08.786Z,19.01
2023-05-19T10:58:09.824Z,19.04
2023-05-19T10:59:09.738Z,19.04
2023-05-19T11:00:09.898Z,19.03
2023-05-19T11:01:09.792Z,18.98
2023-05-19T11:02:09.793Z,19.02
2023-05-19T11:03:08.761Z,19.06
2023-05-19T11:04:09.796Z,19.05
2023-05-19T11:05:09.718Z,19.06
2023-05-19T11:06:08.694Z,19.08
2023-05-19T11:07:09.819Z,19.11
2023-05-19T11:08:09.013Z,19.15
2023-05-19T11:09:08.855Z,19.22
2023-05-19T11:10:08.847Z,19.30
2023-05-19T11:11:09.873Z,19.32
2023-05-19T11:12:10.019Z,19.36
2023-05-19T11:13:09.116Z,19.38
2023-05-19T11:14:09.953Z,19.39
2023-05-19T11:15:09.006Z,19.38
2023-05-19T11:16:10.055Z,19.44
2023-05-19T11:17:10.054Z,19.45
2023-05-19T11:18:09.100Z,19.23
2023-05-19T11:19:09.272Z,19.35
2023-05-19T11:20:09.269Z,19.13
2023-05-19T11:21:10.223Z,19.13
2023-05-19T11:22:09.257Z,19.17
2023-05-19T11:23:09.732Z,19.23
2023-05-19T11:24:10.365Z,19.35
2023-05-19T11:25:10.357Z,19.41
2023-05-19T11:26:10.381Z,19.42
2023-05-19T11:27:09.436Z,19.48
2023-05-19T11:28:09.463Z,19.55
2023-05-19T11:29:09.609Z,19.54
2023-05-19T11:30:09.826Z,19.49
2023-05-19T11:31:10.589Z,19.51
2023-05-19T11:32:09.667Z,19.53
2023-05-19T11:33:09.698Z,19.57
2023-05-19T11:34:09.756Z,19.61
2023-05-19T11:35:09.742Z,19.54
2023-05-19T11:36:10.919Z,19.63
2023-05-19T11:37:10.799Z,19.54
2023-05-19T11:38:10.879Z,19.46
2023-05-19T11:39:10.880Z,19.55
2023-05-19T11:40:10.910Z,19.48
2023-05-19T11:41:10.964Z,19.59
2023-05-19T11:42:11.304Z,19.73
2023-05-19T11:43:10.068Z,19.83
2023-05-19T11:44:10.095Z,19.95
2023-05-19T11:45:10.185Z,19.94
2023-05-19T11:46:11.220Z,19.93
2023-05-19T11:47:11.200Z,19.96
2023-05-19T11:48:10.342Z,19.86
2023-05-19T11:49:10.275Z,19.84
2023-05-19T11:50:10.345Z,19.90
2023-05-19T11:51:10.613Z,20.01
2023-05-19T11:52:11.336Z,20.05
2023-05-19T11:53:11.665Z,20.09
2023-05-19T11:54:11.445Z,20.19
2023-05-19T11:55:10.452Z,20.26
2023-05-19T11:56:10.638Z,20.31
2023-05-19T11:57:11.511Z,20.30
2023-05-19T11:58:10.605Z,20.33
2023-05-19T11:59:10.841Z,20.36
2023-05-19T12:00:11.802Z,20.40
2023-05-19T12:01:11.917Z,20.45
2023-05-19T12:02:11.784Z,20.42
2023-05-19T12:03:11.925Z,20.46
2023-05-19T12:04:10.856Z,20.51
2023-05-19T12:05:11.025Z,20.56
2023-05-19T12:06:12.266Z,20.60
2023-05-19T12:07:11.996Z,20.44
2023-05-19T12:08:11.035Z,20.45
2023-05-19T12:09:11.072Z,20.56
2023-05-19T12:10:11.372Z,20.68
2023-05-19T12:11:11.256Z,20.77
2023-05-19T12:12:12.183Z,20.82
2023-05-19T12:13:11.453Z,20.88
2023-05-19T12:14:12.311Z,20.92
2023-05-19T12:15:12.310Z,20.94
2023-05-19T12:16:12.465Z,21.00
2023-05-19T12:17:11.447Z,21.00
2023-05-19T12:18:11.414Z,21.04
2023-05-19T12:19:12.723Z,21.00
2023-05-19T12:20:12.737Z,20.77
2023-05-19T12:21:11.745Z,20.34
2023-05-19T12:22:11.529Z,20.31
2023-05-19T12:23:11.743Z,20.24
2023-05-19T12:24:11.642Z,20.25
2023-05-19T12:25:11.695Z,20.38
2023-05-19T12:26:11.650Z,20.44
2023-05-19T12:27:11.704Z,20.51
2023-05-19T12:28:12.747Z,20.64
2023-05-19T12:29:12.789Z,20.68
2023-05-19T12:30:12.746Z,20.77
2023-05-19T12:31:13.136Z,20.93
2023-05-19T12:32:11.878Z,21.04
2023-05-19T12:33:12.952Z,21.18
2023-05-19T12:34:11.910Z,21.24
2023-05-19T12:35:11.925Z,21.25
2023-05-19T12:36:11.972Z,21.22
2023-05-19T12:37:12.016Z,21.18
2023-05-19T12:38:12.980Z,21.21
2023-05-19T12:39:13.103Z,21.10
2023-05-19T12:40:12.067Z,21.09
2023-05-19T12:41:12.111Z,21.09
2023-05-19T12:42:12.141Z,21.06
2023-05-19T12:43:13.206Z,21.07
2023-05-19T12:44:13.406Z,21.13
2023-05-19T12:45:12.304Z,21.22
2023-05-19T12:46:13.512Z,21.20
2023-05-19T12:47:13.505Z,21.23
2023-05-19T12:48:13.502Z,21.27
2023-05-19T12:49:13.520Z,21.26
2023-05-19T12:50:13.451Z,21.26
2023-05-19T12:51:13.529Z,21.25
2023-05-19T12:52:13.218Z,21.26
2023-05-19T12:53:12.695Z,21.32